createdAt,value
2019-01-18T00:01:16.017Z,26.73
2019-01-18T00:03:45.348Z,25.47
2019-01-18T00:06:13.878Z,26.27
2019-01-18T00:08:43.222Z,24.33
2019-01-18T00:11:12.539Z,22.80
2019-01-18T00:13:41.899Z,23.07
2019-01-18T00:16:11.239Z,22.60
2019-01-18T00:18:40.585Z,23.63
2019-01-18T00:21:09.913Z,23.10
2019-01-18T00:23:39.259Z,22.97
2019-01-18T00:26:07.966Z,23.40
2019-01-18T00:28:36.490Z,22.77
2019-01-18T00:31:05.917Z,23.73
2019-01-18T00:33:35.255Z,23.83
2019-01-18T00:36:03.982Z,23.17
2019-01-18T00:38:33.307Z,22.67
2019-01-18T00:41:02.740Z,20.87
2019-01-18T00:43:32.055Z,20.03
2019-01-18T00:46:00.619Z,18.27
2019-01-18T00:48:41.763Z,18.00
2019-01-18T00:51:10.347Z,18.30
2019-01-18T00:53:38.901Z,16.33
2019-01-18T00:56:08.233Z,15.73
2019-01-18T00:58:37.602Z,15.77
2019-01-18T01:01:06.938Z,14.40
2019-01-18T01:03:36.262Z,15.10
2019-01-18T01:06:05.740Z,16.30
2019-01-18T01:08:35.056Z,15.17
2019-01-18T01:11:04.469Z,15.00
2019-01-18T01:13:33.834Z,15.97
2019-01-18T01:16:02.454Z,16.30
2019-01-18T01:18:31.775Z,15.10
2019-01-18T01:21:01.158Z,15.93
2019-01-18T01:23:31.059Z,16.17
2019-01-18T01:26:00.371Z,18.47
2019-01-18T01:28:29.732Z,17.43
2019-01-18T01:30:59.120Z,19.70
2019-01-18T01:33:28.470Z,20.20
2019-01-18T01:35:57.799Z,20.27
2019-01-18T01:38:27.173Z,19.87
2019-01-18T01:40:56.507Z,17.73
2019-01-18T01:43:25.880Z,18.13
2019-01-18T01:45:54.495Z,17.50
2019-01-18T01:48:23.036Z,18.57
2019-01-18T01:50:52.405Z,18.37
2019-01-18T01:53:21.747Z,16.60
2019-01-18T01:55:51.051Z,16.67
2019-01-18T01:58:20.400Z,14.33
2019-01-18T02:00:48.923Z,15.53
2019-01-18T02:03:17.545Z,13.30
2019-01-18T02:05:46.911Z,13.67
2019-01-18T02:08:16.235Z,14.80
2019-01-18T02:10:44.760Z,14.63
2019-01-18T02:13:25.233Z,14.53
2019-01-18T02:15:53.770Z,12.60
2019-01-18T02:18:23.095Z,13.23
2019-01-18T02:20:52.460Z,12.57
2019-01-18T02:23:21.803Z,15.47
2019-01-18T02:25:51.128Z,15.90
2019-01-18T02:28:20.506Z,14.53
2019-01-18T02:30:49.823Z,14.93
2019-01-18T02:33:18.446Z,14.43
2019-01-18T02:35:46.917Z,11.77
2019-01-18T02:38:16.260Z,11.53
2019-01-18T02:40:45.605Z,12.10
2019-01-18T02:43:14.086Z,11.90
2019-01-18T02:45:43.434Z,12.20
2019-01-18T02:48:12.849Z,11.77
2019-01-18T02:50:42.231Z,10.80
2019-01-18T02:53:10.759Z,10.83
2019-01-18T02:55:39.275Z,10.83
2019-01-18T02:58:08.641Z,9.83
2019-01-18T03:00:37.155Z,10.03
2019-01-18T03:03:06.491Z,11.03
2019-01-18T03:05:35.948Z,9.60
2019-01-18T03:08:05.367Z,11.80
2019-01-18T03:10:34.693Z,10.10
2019-01-18T03:13:04.127Z,9.87
2019-01-18T03:15:33.457Z,11.73
2019-01-18T03:18:01.981Z,11.53
2019-01-18T03:20:30.631Z,12.23
2019-01-18T03:23:00.008Z,13.93
2019-01-18T03:25:29.361Z,13.80
2019-01-18T03:27:58.693Z,15.90
2019-01-18T03:30:28.022Z,14.90
2019-01-18T03:32:57.355Z,16.10
2019-01-18T03:35:26.764Z,18.63
2019-01-18T03:37:56.190Z,18.00
2019-01-18T03:40:25.617Z,19.27
2019-01-18T03:42:54.999Z,19.90
2019-01-18T03:45:23.432Z,20.03
2019-01-18T03:47:52.058Z,19.73
2019-01-18T03:50:23.419Z,18.90
2019-01-18T03:52:53.841Z,17.30
2019-01-18T03:55:22.428Z,16.87
2019-01-18T03:57:51.872Z,15.23
2019-01-18T04:00:41.724Z,14.57
2019-01-18T04:03:11.082Z,13.53
2019-01-18T04:05:40.395Z,13.37
2019-01-18T04:08:09.729Z,16.33
2019-01-18T04:10:39.053Z,17.83
2019-01-18T04:13:07.694Z,17.73
2019-01-18T04:15:36.235Z,18.13
2019-01-18T04:18:05.084Z,17.67
2019-01-18T04:20:33.707Z,17.53
2019-01-18T04:23:03.038Z,16.60
2019-01-18T04:25:32.373Z,17.00
2019-01-18T04:28:01.693Z,16.80
2019-01-18T04:30:33.713Z,17.73
2019-01-18T04:33:20.275Z,18.83
2019-01-18T04:35:49.616Z,19.77
2019-01-18T04:38:18.140Z,18.63
2019-01-18T04:40:46.678Z,18.70
2019-01-18T04:43:27.626Z,18.23
2019-01-18T04:45:56.164Z,18.07
2019-01-18T04:48:25.509Z,18.97
2019-01-18T04:50:54.214Z,18.13
2019-01-18T04:53:23.541Z,17.07
2019-01-18T04:55:52.887Z,16.50
2019-01-18T04:58:22.207Z,16.73
2019-01-18T05:00:51.553Z,16.50
2019-01-18T05:03:20.077Z,19.00
2019-01-18T05:05:48.513Z,19.80
2019-01-18T05:08:17.144Z,19.80
2019-01-18T05:10:46.462Z,19.70
2019-01-18T05:13:15.279Z,20.57
2019-01-18T05:15:43.851Z,22.50
2019-01-18T05:18:13.809Z,21.83
2019-01-18T05:20:43.177Z,26.40
2019-01-18T05:23:12.519Z,26.30
2019-01-18T05:25:41.825Z,24.87
2019-01-18T05:28:10.365Z,28.97
2019-01-18T05:30:38.876Z,29.30
2019-01-18T05:33:08.202Z,31.43
2019-01-18T05:35:37.534Z,31.47
2019-01-18T05:38:06.873Z,29.10
2019-01-18T05:40:36.204Z,30.73
2019-01-18T05:43:05.520Z,31.60
2019-01-18T05:45:34.884Z,29.93
2019-01-18T05:48:04.378Z,25.10
2019-01-18T05:50:33.701Z,23.23
2019-01-18T05:53:05.286Z,24.63
2019-01-18T05:55:33.828Z,25.53
2019-01-18T05:58:02.665Z,25.67
2019-01-18T06:00:55.300Z,24.80
2019-01-18T06:03:41.666Z,26.33
2019-01-18T06:06:11.019Z,26.27
2019-01-18T06:08:40.365Z,26.10
2019-01-18T06:11:08.851Z,28.17
2019-01-18T06:13:38.175Z,27.67
2019-01-18T06:16:06.634Z,30.63
2019-01-18T06:18:35.167Z,33.50
2019-01-18T06:21:04.501Z,35.07
2019-01-18T06:23:33.846Z,33.57
2019-01-18T06:26:02.287Z,37.90
2019-01-18T06:28:31.626Z,44.20
2019-01-18T06:31:01.780Z,37.07
2019-01-18T06:33:50.278Z,33.83
2019-01-18T06:36:19.672Z,34.70
2019-01-18T06:38:48.329Z,34.83
2019-01-18T06:41:37.120Z,36.63
2019-01-18T06:44:05.669Z,41.73
2019-01-18T06:46:35.024Z,43.50
2019-01-18T06:51:43.008Z,48.03
2019-01-18T06:54:12.378Z,51.67
2019-01-18T06:56:41.701Z,51.07
2019-01-18T06:59:11.032Z,55.87
2019-01-18T07:01:40.405Z,56.53
2019-01-18T07:04:08.957Z,60.57
2019-01-18T07:06:37.393Z,67.53
2019-01-18T07:09:08.243Z,68.33
2019-01-18T07:11:36.799Z,64.80
2019-01-18T07:14:06.158Z,67.87
2019-01-18T07:16:35.875Z,76.00
2019-01-18T07:19:04.423Z,81.47
2019-01-18T07:21:33.931Z,87.17
2019-01-18T07:26:46.284Z,94.93
2019-01-18T07:29:15.605Z,90.97
2019-01-18T07:31:44.941Z,85.80
2019-01-18T07:34:14.256Z,88.73
2019-01-18T07:36:43.582Z,83.93
2019-01-18T07:39:12.007Z,81.10
2019-01-18T07:41:40.463Z,88.40
2019-01-18T07:44:08.981Z,89.37
2019-01-18T07:46:37.515Z,104.53
2019-01-18T07:49:06.894Z,95.00
2019-01-18T07:51:35.430Z,90.13
2019-01-18T07:54:04.865Z,85.50
2019-01-18T07:56:33.299Z,81.67
2019-01-18T07:59:02.697Z,82.10
2019-01-18T08:01:32.081Z,83.50
2019-01-18T08:04:01.531Z,81.80
2019-01-18T08:06:30.967Z,80.23
2019-01-18T08:09:00.284Z,81.10
2019-01-18T08:11:29.648Z,78.37
2019-01-18T08:13:59.046Z,74.97
2019-01-18T08:16:28.373Z,72.77
2019-01-18T08:18:57.705Z,75.33
2019-01-18T08:21:27.057Z,64.63
2019-01-18T08:23:56.394Z,63.03
2019-01-18T08:26:24.930Z,56.60
2019-01-18T08:28:53.480Z,55.83
2019-01-18T08:31:28.675Z,58.47
2019-01-18T08:34:12.074Z,60.40
2019-01-18T08:36:41.400Z,52.47
2019-01-18T08:39:10.748Z,53.23
2019-01-18T08:41:40.260Z,49.27
2019-01-18T08:44:09.595Z,45.90
2019-01-18T08:46:38.931Z,43.87
2019-01-18T08:49:08.261Z,47.10
2019-01-18T08:51:37.596Z,36.30
2019-01-18T08:54:06.928Z,35.37
2019-01-18T08:56:35.346Z,37.73
2019-01-18T09:02:05.782Z,32.97
2019-01-18T09:04:34.332Z,31.67
2019-01-18T09:07:02.981Z,29.97
2019-01-18T09:09:32.343Z,27.87
2019-01-18T09:12:01.682Z,21.20
2019-01-18T09:14:31.014Z,22.70
2019-01-18T09:17:00.350Z,23.87
2019-01-18T09:19:29.711Z,22.83
2019-01-18T09:21:59.060Z,24.10
2019-01-18T09:24:27.505Z,24.80
2019-01-18T09:26:56.842Z,23.90
2019-01-18T09:29:26.182Z,25.07
2019-01-18T09:31:55.515Z,25.53
2019-01-18T09:34:24.844Z,25.07
2019-01-18T09:36:54.184Z,25.37
2019-01-18T09:39:23.558Z,25.63
2019-01-18T09:41:52.888Z,26.30
2019-01-18T09:44:21.535Z,28.83
2019-01-18T09:46:50.856Z,30.03
2019-01-18T09:49:19.430Z,28.93
2019-01-18T09:51:47.878Z,30.63
2019-01-18T09:54:16.626Z,27.20
2019-01-18T09:56:45.093Z,27.37
2019-01-18T09:59:13.611Z,27.77
2019-01-18T10:01:42.241Z,29.33
2019-01-18T10:04:10.777Z,29.77
2019-01-18T10:06:39.320Z,31.40
2019-01-18T10:09:08.762Z,32.87
2019-01-18T10:11:38.121Z,30.17
2019-01-18T10:14:07.465Z,31.77
2019-01-18T10:16:36.815Z,30.23
2019-01-18T10:19:06.178Z,27.60
2019-01-18T10:21:35.520Z,25.17
2019-01-18T10:24:04.054Z,25.20
2019-01-18T10:26:32.500Z,21.77
2019-01-18T10:29:01.135Z,22.07
2019-01-18T10:31:29.971Z,21.20
2019-01-18T10:33:59.314Z,20.43
2019-01-18T10:36:28.659Z,17.40
2019-01-18T10:38:57.997Z,17.40
2019-01-18T10:41:27.328Z,16.53
2019-01-18T10:43:56.655Z,16.97
2019-01-18T10:46:25.195Z,15.73
2019-01-18T10:48:54.550Z,12.27
2019-01-18T10:51:22.994Z,12.60
2019-01-18T10:53:51.547Z,12.10
2019-01-18T10:56:20.889Z,11.60
2019-01-18T10:58:50.218Z,11.40
2019-01-18T11:01:19.554Z,12.70
2019-01-18T11:03:48.894Z,11.20
2019-01-18T11:06:18.241Z,10.77
2019-01-18T11:08:47.574Z,8.40
2019-01-18T11:11:16.016Z,8.37
2019-01-18T11:13:44.629Z,8.60
2019-01-18T11:16:13.183Z,8.17
2019-01-18T11:18:42.518Z,7.87
2019-01-18T11:21:15.643Z,8.60
2019-01-18T11:23:44.086Z,8.00
2019-01-18T11:26:13.673Z,7.23
2019-01-18T11:28:43.056Z,7.67
2019-01-18T11:31:11.700Z,7.67
2019-01-18T11:33:41.026Z,8.80
2019-01-18T11:36:10.386Z,10.43
2019-01-18T11:38:39.727Z,8.47
2019-01-18T11:41:09.073Z,7.97
2019-01-18T11:43:38.409Z,10.03
2019-01-18T11:46:07.077Z,10.40
2019-01-18T11:48:35.764Z,11.43
2019-01-18T11:51:04.944Z,10.20
2019-01-18T11:53:34.307Z,10.90
2019-01-18T11:56:04.018Z,10.13
2019-01-18T11:58:33.441Z,11.03
2019-01-18T12:01:02.888Z,12.93
2019-01-18T12:03:32.225Z,10.53
2019-01-18T12:06:01.579Z,10.33
2019-01-18T12:08:30.945Z,12.50
2019-01-18T12:11:00.407Z,10.80
2019-01-18T12:13:28.841Z,9.10
2019-01-18T12:15:57.397Z,9.97
2019-01-18T12:18:26.774Z,9.30
2019-01-18T12:20:56.229Z,9.40
2019-01-18T12:23:25.581Z,10.03
2019-01-18T12:25:54.946Z,10.63
2019-01-18T12:28:23.473Z,12.73
2019-01-18T12:30:52.818Z,11.37
2019-01-18T12:33:21.390Z,8.70
2019-01-18T12:35:50.733Z,8.33
2019-01-18T12:38:20.151Z,8.00
2019-01-18T12:40:48.582Z,7.50
2019-01-18T12:43:17.911Z,7.73
2019-01-18T12:45:47.264Z,7.60
2019-01-18T12:48:16.612Z,8.33
2019-01-18T12:50:45.972Z,10.00
2019-01-18T12:53:15.349Z,9.93
2019-01-18T12:55:44.692Z,9.00
2019-01-18T12:58:13.230Z,10.00
2019-01-18T13:00:42.590Z,10.00
2019-01-18T13:03:11.227Z,11.37
2019-01-18T13:05:51.320Z,12.03
2019-01-18T13:08:20.668Z,11.33
2019-01-18T13:10:50.071Z,13.57
2019-01-18T13:13:19.418Z,13.00
2019-01-18T13:16:09.435Z,16.07
2019-01-18T13:18:40.542Z,20.23
2019-01-18T13:21:09.384Z,19.70
2019-01-18T13:23:38.717Z,21.43
2019-01-18T13:26:07.263Z,16.07
2019-01-18T13:28:35.791Z,13.97
2019-01-18T13:31:05.135Z,13.97
2019-01-18T13:33:34.582Z,12.23
2019-01-18T13:38:45.778Z,11.30
2019-01-18T13:41:14.241Z,10.97
2019-01-18T13:43:43.575Z,11.17
2019-01-18T13:46:12.923Z,12.50
2019-01-18T13:48:42.278Z,13.50
2019-01-18T13:51:10.727Z,12.93
2019-01-18T13:53:40.060Z,13.00
2019-01-18T13:56:09.405Z,14.77
2019-01-18T13:58:38.755Z,17.03
2019-01-18T14:01:07.592Z,15.10
2019-01-18T14:03:36.236Z,17.00
2019-01-18T14:06:05.591Z,15.87
2019-01-18T14:08:34.957Z,16.30
2019-01-18T14:11:08.576Z,17.23
2019-01-18T14:13:37.592Z,17.97
2019-01-18T14:16:06.930Z,18.90
2019-01-18T14:18:36.303Z,18.13
2019-01-18T14:21:05.758Z,19.53
2019-01-18T14:23:34.308Z,19.37
2019-01-18T14:29:09.272Z,20.47
2019-01-18T14:31:37.797Z,25.43
2019-01-18T14:34:07.178Z,29.03
2019-01-18T14:36:36.528Z,25.83
2019-01-18T14:39:08.101Z,31.23
2019-01-18T14:41:36.948Z,26.30
2019-01-18T14:44:06.286Z,26.87
2019-01-18T14:46:35.623Z,28.90
2019-01-18T14:49:04.979Z,26.57
2019-01-18T14:51:34.320Z,32.10
2019-01-18T14:57:06.525Z,29.50
2019-01-18T14:59:35.870Z,34.87
2019-01-18T15:02:05.198Z,37.07
2019-01-18T15:04:34.607Z,33.37
2019-01-18T15:07:03.949Z,26.73
2019-01-18T15:09:32.899Z,38.60
2019-01-18T15:12:01.743Z,36.80
2019-01-18T15:14:31.133Z,36.17
2019-01-18T15:17:00.492Z,40.00
2019-01-18T15:19:29.838Z,42.90
2019-01-18T15:21:59.199Z,41.83
2019-01-18T15:24:28.517Z,37.40
2019-01-18T15:26:57.143Z,46.47
2019-01-18T15:29:26.517Z,50.90
2019-01-18T15:31:55.866Z,51.47
2019-01-18T15:34:27.428Z,53.43
2019-01-18T15:36:56.764Z,61.20
2019-01-18T15:39:26.101Z,54.27
2019-01-18T15:41:55.437Z,69.47
2019-01-18T15:44:24.374Z,70.70
2019-01-18T15:46:53.718Z,82.97
2019-01-18T15:49:23.057Z,84.37
2019-01-18T15:51:52.391Z,88.67
2019-01-18T15:54:21.723Z,89.30
2019-01-18T15:56:51.065Z,90.47
2019-01-18T15:59:20.393Z,109.30
2019-01-18T16:01:49.928Z,102.67
2019-01-18T16:04:19.303Z,112.53
2019-01-18T16:06:48.672Z,111.57
2019-01-18T16:09:17.204Z,89.60
2019-01-18T16:11:45.843Z,102.30
2019-01-18T16:14:16.156Z,126.97
2019-01-18T16:16:51.696Z,143.00
2019-01-18T16:19:21.026Z,141.70
2019-01-18T16:21:50.360Z,141.90
2019-01-18T16:24:18.906Z,162.73
2019-01-18T16:26:48.268Z,163.97
2019-01-18T16:29:16.923Z,169.57
2019-01-18T16:31:46.380Z,158.83
2019-01-18T16:34:15.722Z,146.73
2019-01-18T16:36:44.557Z,137.40
2019-01-18T16:39:13.098Z,147.03
2019-01-18T16:41:42.435Z,150.13
2019-01-18T16:44:11.760Z,153.80
2019-01-18T16:46:40.317Z,149.40
2019-01-18T16:49:15.155Z,140.53
2019-01-18T16:51:43.793Z,128.90
2019-01-18T16:54:13.160Z,126.73
2019-01-18T16:56:41.702Z,122.27
2019-01-18T16:59:10.835Z,121.60
2019-01-18T17:01:39.459Z,125.20
2019-01-18T17:04:08.085Z,116.73
2019-01-18T17:06:37.778Z,112.07
2019-01-18T17:09:08.150Z,113.10
2019-01-18T17:11:37.688Z,105.80
2019-01-18T17:14:07.018Z,107.73
2019-01-18T17:16:36.346Z,103.00
2019-01-18T17:19:05.683Z,97.43
2019-01-18T17:21:35.019Z,100.57
2019-01-18T17:24:03.841Z,101.83
2019-01-18T17:26:32.367Z,97.70
2019-01-18T17:29:01.873Z,97.60
2019-01-18T17:31:30.525Z,97.13
2019-01-18T17:33:59.551Z,96.87
2019-01-18T17:36:52.168Z,93.33
2019-01-18T17:39:42.822Z,95.03
2019-01-18T17:42:39.480Z,95.67
2019-01-18T17:45:48.277Z,98.63
2019-01-18T17:48:56.030Z,102.77
2019-01-18T17:52:03.948Z,102.80
2019-01-18T17:54:46.157Z,107.73
2019-01-18T17:57:55.196Z,110.77
2019-01-18T18:01:02.899Z,120.57
2019-01-18T18:04:04.070Z,118.53
2019-01-18T18:07:11.496Z,111.17
2019-01-18T18:10:03.307Z,109.67
2019-01-18T18:13:05.549Z,101.17
2019-01-18T18:16:12.904Z,100.90
2019-01-18T18:19:20.260Z,97.43
2019-01-18T18:22:27.734Z,88.97
2019-01-18T18:25:35.140Z,84.37
2019-01-18T18:28:42.299Z,69.93
2019-01-18T18:31:50.364Z,67.83
2019-01-18T18:34:57.933Z,67.40
2019-01-18T18:38:01.103Z,67.27
2019-01-18T18:41:02.203Z,67.53
2019-01-18T18:43:56.704Z,80.17
2019-01-18T18:47:04.768Z,83.03
2019-01-18T18:49:59.721Z,85.03
2019-01-18T18:52:54.662Z,83.67
2019-01-18T18:56:02.020Z,85.20
2019-01-18T18:59:09.570Z,88.03
2019-01-18T19:02:01.184Z,85.33
2019-01-18T19:05:02.022Z,82.00
2019-01-18T19:08:10.087Z,84.43
2019-01-18T19:10:49.525Z,89.60
2019-01-18T19:13:56.872Z,98.33
2019-01-18T19:17:04.598Z,102.13
2019-01-18T19:20:11.950Z,107.53
2019-01-18T19:23:04.640Z,133.30
2019-01-18T19:26:12.754Z,148.83
2019-01-18T19:29:20.805Z,141.20
2019-01-18T19:32:07.311Z,142.80
2019-01-18T19:35:15.367Z,141.40
2019-01-18T19:38:22.787Z,141.13
2019-01-18T19:41:30.198Z,126.90
2019-01-18T19:44:28.440Z,127.90
2019-01-18T19:47:36.502Z,138.77
2019-01-18T19:50:33.574Z,142.63
2019-01-18T19:53:14.600Z,147.30
2019-01-18T19:56:31.453Z,137.07
2019-01-18T19:59:38.703Z,135.40
2019-01-18T20:02:46.262Z,138.80
2019-01-18T20:05:48.962Z,121.93
2019-01-18T20:08:56.218Z,122.80
2019-01-18T20:12:03.571Z,120.73
2019-01-18T20:15:04.558Z,107.77
2019-01-18T20:18:05.411Z,100.10
2019-01-18T20:21:12.574Z,90.27
2019-01-18T20:24:19.826Z,84.27
2019-01-18T20:27:27.087Z,81.33
2019-01-18T20:30:34.548Z,79.33
2019-01-18T20:33:41.803Z,79.57
2019-01-18T20:36:37.201Z,82.03
2019-01-18T20:39:41.755Z,79.23
2019-01-18T20:42:49.883Z,77.47
2019-01-18T20:45:46.863Z,82.90
2019-01-18T20:48:54.238Z,82.83
2019-01-18T20:52:01.801Z,80.70
2019-01-18T20:55:09.319Z,79.47
2019-01-18T20:58:01.596Z,82.03
2019-01-18T21:00:54.583Z,83.50
2019-01-18T21:04:02.642Z,89.07
2019-01-18T21:07:10.008Z,89.73
2019-01-18T21:10:06.897Z,89.57
2019-01-18T21:13:15.022Z,90.20
2019-01-18T21:16:23.062Z,98.20
2019-01-18T21:19:30.418Z,99.70
2019-01-18T21:22:37.681Z,99.93
2019-01-18T21:25:44.938Z,96.23
2019-01-18T21:28:52.158Z,93.80
2019-01-18T21:31:43.883Z,95.53
2019-01-18T21:34:36.635Z,90.90
2019-01-18T21:37:44.680Z,91.20
2019-01-18T21:40:37.227Z,86.70
2019-01-18T21:43:45.279Z,88.40
2019-01-18T21:46:37.894Z,87.50
2019-01-18T21:53:08.519Z,61.77
2019-01-18T21:56:16.624Z,52.83
2019-01-18T21:59:24.679Z,51.07
2019-01-18T22:02:17.474Z,50.30
2019-01-18T22:05:25.499Z,53.80
2019-01-18T22:08:32.764Z,47.57
2019-01-18T22:11:40.077Z,44.23
2019-01-18T22:14:49.607Z,43.90
2019-01-18T22:18:19.012Z,51.40
2019-01-18T22:21:27.916Z,51.00
2019-01-18T22:24:19.847Z,51.33
2019-01-18T22:27:27.900Z,52.93
2019-01-18T22:30:12.904Z,51.77
2019-01-18T22:33:14.068Z,51.67
2019-01-18T22:36:21.230Z,52.57
2019-01-18T22:39:32.818Z,51.33
2019-01-18T22:42:23.143Z,52.60
2019-01-18T22:45:31.251Z,51.87
2019-01-18T22:48:44.715Z,50.03
2019-01-18T22:51:52.174Z,48.37
2019-01-18T22:54:59.426Z,46.57
2019-01-18T22:58:06.589Z,44.13
2019-01-18T23:01:20.959Z,46.00
2019-01-18T23:04:13.559Z,51.40
2019-01-18T23:07:21.612Z,53.67
2019-01-18T23:10:28.875Z,55.83
2019-01-18T23:13:30.670Z,54.73
2019-01-18T23:16:38.723Z,56.33
2019-01-18T23:19:45.981Z,52.43
2019-01-18T23:22:53.239Z,52.17
2019-01-18T23:26:00.803Z,54.50
2019-01-18T23:28:53.454Z,53.07
2019-01-18T23:31:48.628Z,52.53
2019-01-18T23:34:44.029Z,47.87
2019-01-18T23:37:51.332Z,45.97
2019-01-18T23:40:59.510Z,45.57
2019-01-18T23:43:39.196Z,46.77
2019-01-18T23:46:46.649Z,45.60
2019-01-18T23:53:20.370Z,38.33
2019-01-18T23:56:11.572Z,37.77
2019-01-18T23:59:19.633Z,36.77
